AAL407 PAFA-CYYZ
Flight info
| Callsign | AAL407 |
|---|---|
| Flight time | N/A |
| Altitude | 39000 |
| Route | MKNLY4 FAI DCT ORT DCT 63N140W 63N130W 62N120W 59N110W 55N100W/N0493F410 DCT MISAX DCT SSM DCT OTNIK BOXUM7 |
| Aircraft | B789/H-SDE1E2E3FGHIJ2J3J4J5M1RWXY/LB1D1 |
Departure
| Time | 2026-05-01 11:59 |
|---|---|
| Airport | Fairbanks International Airport (PAFA) |
Arrival
| Time | N/A |
|---|---|
| Airport | Toronto Pearson International Airport (CYYZ) |
| Time | Latitude | Longitude | Altitude | Speed | Heading |
|---|---|---|---|---|---|
| 2026-05-01 11:49 | 64.81733 | -147.86552 | 452 ft | 0 kts | 303° |
| 2026-05-01 11:52 | 64.81730 | -147.86543 | 452 ft | 2 kts | 303° |
| 2026-05-01 11:52 | 64.81721 | -147.86510 | 452 ft | 3 kts | 303° |
| 2026-05-01 11:52 | 64.81710 | -147.86471 | 452 ft | 3 kts | 303° |
| 2026-05-01 11:53 | 64.81699 | -147.86431 | 452 ft | 3 kts | 303° |
| 2026-05-01 11:53 | 64.81689 | -147.86394 | 452 ft | 0 kts | 303° |
| 2026-05-01 11:53 | 64.81691 | -147.86401 | 452 ft | 1 kts | 306° |
| 2026-05-01 11:53 | 64.81697 | -147.86408 | 452 ft | 1 kts | 343° |
| 2026-05-01 11:54 | 64.81714 | -147.86409 | 452 ft | 3 kts | 5° |
| 2026-05-01 11:54 | 64.81730 | -147.86370 | 452 ft | 3 kts | 64° |
| 2026-05-01 11:54 | 64.81729 | -147.86299 | 452 ft | 6 kts | 91° |
| 2026-05-01 11:54 | 64.81741 | -147.86201 | 452 ft | 6 kts | 56° |
| 2026-05-01 11:55 | 64.81778 | -147.86107 | 452 ft | 9 kts | 41° |
| 2026-05-01 11:55 | 64.81831 | -147.86005 | 452 ft | 11 kts | 38° |
| 2026-05-01 11:55 | 64.81898 | -147.85881 | 452 ft | 13 kts | 38° |
| 2026-05-01 11:55 | 64.81975 | -147.85740 | 452 ft | 15 kts | 38° |
| 2026-05-01 11:56 | 64.82061 | -147.85586 | 452 ft | 16 kts | 37° |
| 2026-05-01 11:56 | 64.82155 | -147.85418 | 452 ft | 18 kts | 37° |
| 2026-05-01 11:56 | 64.82256 | -147.85239 | 452 ft | 19 kts | 37° |
| 2026-05-01 11:56 | 64.82359 | -147.85048 | 452 ft | 19 kts | 38° |
| 2026-05-01 11:57 | 64.82466 | -147.84854 | 452 ft | 20 kts | 38° |
| 2026-05-01 11:57 | 64.82540 | -147.84719 | 452 ft | 20 kts | 38° |
| 2026-05-01 11:57 | 64.82688 | -147.84447 | 452 ft | 21 kts | 39° |
| 2026-05-01 11:57 | 64.82800 | -147.84236 | 452 ft | 21 kts | 39° |
| 2026-05-01 11:58 | 64.82798 | -147.83996 | 452 ft | 14 kts | 162° |
| 2026-05-01 11:58 | 64.82723 | -147.84070 | 452 ft | 13 kts | 215° |
| 2026-05-01 11:58 | 64.81683 | -147.85969 | 453 ft | 171 kts | 218° |
| 2026-05-01 11:59 | 64.80639 | -147.87909 | 730 ft | 206 kts | 219° |
| 2026-05-01 11:59 | 64.79460 | -147.89905 | 1452 ft | 212 kts | 213° |
| 2026-05-01 11:59 | 64.78166 | -147.91527 | 2381 ft | 213 kts | 200° |
| 2026-05-01 12:00 | 64.75281 | -147.89285 | 3270 ft | 249 kts | 131° |
| 2026-05-01 12:00 | 64.74305 | -147.85839 | 3960 ft | 257 kts | 122° |
| 2026-05-01 12:00 | 64.72349 | -147.78505 | 5302 ft | 272 kts | 122° |
| 2026-05-01 12:01 | 64.71331 | -147.74717 | 6032 ft | 277 kts | 122° |
| 2026-05-01 12:01 | 64.70288 | -147.70858 | 6777 ft | 282 kts | 122° |
| 2026-05-01 12:01 | 64.69243 | -147.67009 | 7520 ft | 286 kts | 123° |
| 2026-05-01 12:01 | 64.68171 | -147.63066 | 8280 ft | 289 kts | 122° |
| 2026-05-01 12:02 | 64.67112 | -147.59023 | 9032 ft | 293 kts | 122° |
| 2026-05-01 12:02 | 64.66048 | -147.54914 | 9756 ft | 297 kts | 121° |
| 2026-05-01 12:02 | 64.64952 | -147.50676 | 10204 ft | 312 kts | 121° |
| 2026-05-01 12:02 | 64.63799 | -147.46225 | 10546 ft | 329 kts | 121° |
| 2026-05-01 12:03 | 64.62581 | -147.41531 | 10847 ft | 346 kts | 121° |
| 2026-05-01 12:03 | 64.61318 | -147.36672 | 11103 ft | 363 kts | 121° |
| 2026-05-01 12:03 | 64.59980 | -147.31537 | 11374 ft | 378 kts | 121° |
| 2026-05-01 12:03 | 64.58592 | -147.26225 | 11778 ft | 388 kts | 121° |
| 2026-05-01 12:04 | 64.57171 | -147.20799 | 12280 ft | 395 kts | 122° |
| 2026-05-01 12:04 | 64.56222 | -147.17184 | 12638 ft | 399 kts | 122° |
| 2026-05-01 12:04 | 64.54763 | -147.11633 | 13196 ft | 404 kts | 122° |
| 2026-05-01 12:04 | 64.53280 | -147.06005 | 13766 ft | 408 kts | 122° |
| 2026-05-01 12:05 | 64.51299 | -146.98513 | 14520 ft | 413 kts | 122° |
| 2026-05-01 12:05 | 64.48757 | -146.88938 | 15427 ft | 419 kts | 122° |
| 2026-05-01 12:05 | 64.47213 | -146.83143 | 15931 ft | 423 kts | 122° |
| 2026-05-01 12:06 | 64.45677 | -146.77392 | 16405 ft | 428 kts | 122° |
| 2026-05-01 12:06 | 64.44097 | -146.71494 | 16882 ft | 432 kts | 122° |
| 2026-05-01 12:06 | 64.42506 | -146.65567 | 17356 ft | 436 kts | 122° |
| 2026-05-01 12:06 | 64.40893 | -146.59580 | 17829 ft | 439 kts | 122° |
| 2026-05-01 12:07 | 64.39271 | -146.53572 | 18286 ft | 443 kts | 122° |
| 2026-05-01 12:07 | 64.37628 | -146.47504 | 18726 ft | 446 kts | 122° |
| 2026-05-01 12:07 | 64.35968 | -146.41388 | 19147 ft | 450 kts | 122° |
| 2026-05-01 12:07 | 64.34297 | -146.35251 | 19558 ft | 454 kts | 122° |
| 2026-05-01 12:08 | 64.32607 | -146.29077 | 19966 ft | 457 kts | 122° |
| 2026-05-01 12:08 | 64.30900 | -146.22951 | 20367 ft | 461 kts | 123° |
| 2026-05-01 12:08 | 64.29145 | -146.16724 | 20770 ft | 464 kts | 123° |
| 2026-05-01 12:08 | 64.27369 | -146.10472 | 21162 ft | 467 kts | 123° |
| 2026-05-01 12:09 | 64.25570 | -146.04191 | 21544 ft | 471 kts | 123° |
| 2026-05-01 12:09 | 64.23757 | -145.97902 | 21915 ft | 474 kts | 124° |
| 2026-05-01 12:09 | 64.21944 | -145.91643 | 22277 ft | 477 kts | 124° |
| 2026-05-01 12:09 | 64.20084 | -145.85242 | 22645 ft | 481 kts | 124° |
| 2026-05-01 12:10 | 64.18214 | -145.78830 | 23007 ft | 484 kts | 124° |
| 2026-05-01 12:10 | 64.14454 | -145.65991 | 23714 ft | 490 kts | 124° |
| 2026-05-01 12:10 | 64.12545 | -145.59500 | 24056 ft | 493 kts | 124° |
| 2026-05-01 12:11 | 64.08666 | -145.46369 | 24730 ft | 500 kts | 124° |
| 2026-05-01 12:11 | 64.06711 | -145.39779 | 25061 ft | 503 kts | 124° |
| 2026-05-01 12:11 | 64.04734 | -145.33135 | 25392 ft | 506 kts | 124° |
| 2026-05-01 12:12 | 64.02741 | -145.26456 | 25722 ft | 509 kts | 124° |
| 2026-05-01 12:12 | 64.00764 | -145.19849 | 26040 ft | 512 kts | 124° |
| 2026-05-01 12:12 | 63.98741 | -145.13111 | 26361 ft | 515 kts | 124° |
| 2026-05-01 12:12 | 63.96702 | -145.06340 | 26678 ft | 519 kts | 124° |
| 2026-05-01 12:13 | 63.94648 | -144.99537 | 26990 ft | 522 kts | 124° |
| 2026-05-01 12:13 | 63.92584 | -144.92725 | 27300 ft | 525 kts | 124° |
| 2026-05-01 12:13 | 63.90526 | -144.85952 | 27607 ft | 528 kts | 125° |
| 2026-05-01 12:13 | 63.88432 | -144.79080 | 27914 ft | 531 kts | 125° |
| 2026-05-01 12:14 | 63.86315 | -144.72154 | 28220 ft | 534 kts | 125° |
| 2026-05-01 12:14 | 63.84182 | -144.65198 | 28525 ft | 537 kts | 125° |
| 2026-05-01 12:14 | 63.82039 | -144.58231 | 28826 ft | 541 kts | 125° |
| 2026-05-01 12:14 | 63.79874 | -144.51214 | 29128 ft | 544 kts | 125° |
| 2026-05-01 12:15 | 63.77722 | -144.44259 | 29428 ft | 547 kts | 125° |
| 2026-05-01 12:15 | 63.75531 | -144.37202 | 29732 ft | 550 kts | 125° |
| 2026-05-01 12:15 | 63.73317 | -144.30094 | 30035 ft | 553 kts | 125° |
| 2026-05-01 12:15 | 63.71087 | -144.22956 | 30337 ft | 557 kts | 125° |
| 2026-05-01 12:16 | 63.68863 | -144.15858 | 30638 ft | 560 kts | 125° |
| 2026-05-01 12:16 | 63.66608 | -144.08686 | 30982 ft | 562 kts | 125° |
| 2026-05-01 12:16 | 63.64336 | -144.01482 | 31401 ft | 563 kts | 126° |
| 2026-05-01 12:16 | 63.62058 | -143.94278 | 31841 ft | 564 kts | 126° |
| 2026-05-01 12:17 | 63.59775 | -143.87079 | 32285 ft | 564 kts | 126° |
| 2026-05-01 12:17 | 63.57517 | -143.79986 | 32725 ft | 564 kts | 126° |
| 2026-05-01 12:17 | 63.55223 | -143.72808 | 33169 ft | 565 kts | 126° |
| 2026-05-01 12:17 | 63.52933 | -143.65666 | 33612 ft | 565 kts | 126° |
| 2026-05-01 12:18 | 63.50631 | -143.58510 | 34052 ft | 565 kts | 126° |
| 2026-05-01 12:18 | 63.48334 | -143.51391 | 34487 ft | 565 kts | 126° |
| 2026-05-01 12:18 | 63.46027 | -143.44260 | 34916 ft | 564 kts | 126° |
| 2026-05-01 12:18 | 63.43724 | -143.37166 | 35334 ft | 564 kts | 126° |
| 2026-05-01 12:19 | 63.41411 | -143.30062 | 35741 ft | 564 kts | 126° |
| 2026-05-01 12:19 | 63.39127 | -143.23067 | 36127 ft | 564 kts | 126° |
| 2026-05-01 12:19 | 63.36817 | -143.16016 | 36506 ft | 563 kts | 126° |
| 2026-05-01 12:19 | 63.34497 | -143.08958 | 36869 ft | 563 kts | 126° |
| 2026-05-01 12:20 | 63.32175 | -143.01913 | 37216 ft | 563 kts | 126° |
| 2026-05-01 12:20 | 63.29858 | -142.94907 | 37555 ft | 562 kts | 126° |
| 2026-05-01 12:20 | 63.27532 | -142.87894 | 37881 ft | 562 kts | 127° |
| 2026-05-01 12:20 | 63.25204 | -142.80896 | 38191 ft | 562 kts | 127° |
| 2026-05-01 12:21 | 63.22880 | -142.73933 | 38411 ft | 562 kts | 127° |
| 2026-05-01 12:21 | 63.20542 | -142.66950 | 38522 ft | 562 kts | 127° |
| 2026-05-01 12:21 | 63.15884 | -142.53099 | 38538 ft | 562 kts | 127° |
| 2026-05-01 12:22 | 63.11188 | -142.39223 | 38551 ft | 562 kts | 127° |
| 2026-05-01 12:22 | 63.06516 | -142.25498 | 38553 ft | 562 kts | 127° |
| 2026-05-01 12:23 | 63.01799 | -142.11726 | 38543 ft | 562 kts | 127° |
| 2026-05-01 12:23 | 62.97368 | -141.97536 | 38532 ft | 562 kts | 116° |
| 2026-05-01 12:24 | 62.95179 | -141.81146 | 38555 ft | 564 kts | 96° |
| 2026-05-01 12:24 | 62.95441 | -141.63965 | 38570 ft | 565 kts | 84° |
| 2026-05-01 12:25 | 62.96676 | -141.38205 | 38543 ft | 564 kts | 85° |
| 2026-05-01 12:26 | 62.97249 | -141.21021 | 38555 ft | 564 kts | 86° |
| 2026-05-01 12:26 | 62.97936 | -140.95117 | 38543 ft | 564 kts | 87° |
| 2026-05-01 12:27 | 62.98561 | -140.69353 | 38556 ft | 564 kts | 87° |
| 2026-05-01 12:28 | 62.99147 | -140.43486 | 38546 ft | 564 kts | 87° |
| 2026-05-01 12:29 | 62.99686 | -140.17669 | 38551 ft | 564 kts | 87° |
| 2026-05-01 12:29 | 63.00373 | -139.91778 | 38550 ft | 564 kts | 86° |
| 2026-05-01 12:30 | 63.01177 | -139.66033 | 38547 ft | 564 kts | 86° |
| 2026-05-01 12:31 | 63.01732 | -139.48789 | 38549 ft | 564 kts | 86° |
| 2026-05-01 12:31 | 63.02273 | -139.31507 | 38555 ft | 564 kts | 86° |
| 2026-05-01 12:32 | 63.02790 | -139.14243 | 38543 ft | 564 kts | 86° |
| 2026-05-01 12:32 | 63.03522 | -138.88452 | 38556 ft | 564 kts | 86° |
| 2026-05-01 12:33 | 63.03985 | -138.71173 | 38544 ft | 564 kts | 87° |
| 2026-05-01 12:33 | 63.04428 | -138.53867 | 38553 ft | 564 kts | 87° |
| 2026-05-01 12:34 | 63.04847 | -138.36665 | 38552 ft | 564 kts | 87° |
| 2026-05-01 12:34 | 63.05246 | -138.19430 | 38544 ft | 564 kts | 87° |
| 2026-05-01 12:35 | 63.05626 | -138.02109 | 38556 ft | 564 kts | 87° |
| 2026-05-01 12:35 | 63.05985 | -137.84777 | 38546 ft | 564 kts | 88° |
| 2026-05-01 12:36 | 63.06323 | -137.67445 | 38549 ft | 564 kts | 88° |
| 2026-05-01 12:36 | 63.06636 | -137.50253 | 38555 ft | 564 kts | 88° |
| 2026-05-01 12:37 | 63.06932 | -137.32910 | 38543 ft | 564 kts | 88° |
| 2026-05-01 12:37 | 63.07204 | -137.15714 | 38554 ft | 564 kts | 88° |
| 2026-05-01 12:38 | 63.07457 | -136.98370 | 38550 ft | 564 kts | 88° |
| 2026-05-01 12:38 | 63.07689 | -136.81022 | 38545 ft | 564 kts | 88° |
| 2026-05-01 12:39 | 63.07898 | -136.63787 | 38557 ft | 564 kts | 89° |
| 2026-05-01 12:39 | 63.08088 | -136.46457 | 38545 ft | 564 kts | 89° |
| 2026-05-01 12:40 | 63.08255 | -136.29219 | 38551 ft | 564 kts | 89° |
| 2026-05-01 12:40 | 63.08402 | -136.11860 | 38554 ft | 564 kts | 89° |
| 2026-05-01 12:41 | 63.08528 | -135.94527 | 38543 ft | 564 kts | 89° |
| 2026-05-01 12:41 | 63.08633 | -135.77199 | 38556 ft | 564 kts | 89° |
| 2026-05-01 12:42 | 63.08716 | -135.59978 | 38548 ft | 564 kts | 89° |
| 2026-05-01 12:42 | 63.08779 | -135.42627 | 38547 ft | 564 kts | 90° |
| 2026-05-01 12:43 | 63.08820 | -135.25294 | 38556 ft | 564 kts | 90° |
| 2026-05-01 12:43 | 63.08841 | -135.07955 | 38544 ft | 564 kts | 90° |
| 2026-05-01 12:44 | 63.08840 | -134.90680 | 38553 ft | 564 kts | 90° |
| 2026-05-01 12:45 | 63.08775 | -134.56015 | 38544 ft | 564 kts | 90° |
| 2026-05-01 12:45 | 63.08711 | -134.38772 | 38556 ft | 564 kts | 91° |
| 2026-05-01 12:46 | 63.08625 | -134.21435 | 38546 ft | 564 kts | 91° |
| 2026-05-01 12:46 | 63.08519 | -134.04106 | 38549 ft | 564 kts | 91° |
| 2026-05-01 12:47 | 63.08392 | -133.86863 | 38555 ft | 564 kts | 91° |
| 2026-05-01 12:47 | 63.08243 | -133.69533 | 38543 ft | 564 kts | 91° |
| 2026-05-01 12:48 | 63.08073 | -133.52211 | 38554 ft | 564 kts | 91° |
| 2026-05-01 12:48 | 63.07882 | -133.34883 | 38549 ft | 564 kts | 91° |
| 2026-05-01 12:49 | 63.07671 | -133.17647 | 38546 ft | 564 kts | 92° |
| 2026-05-01 12:49 | 63.07438 | -133.00332 | 38557 ft | 564 kts | 92° |
| 2026-05-01 12:50 | 63.07183 | -132.83012 | 38545 ft | 564 kts | 92° |
| 2026-05-01 12:50 | 63.06908 | -132.65703 | 38551 ft | 564 kts | 92° |
| 2026-05-01 12:51 | 63.06611 | -132.48392 | 38553 ft | 564 kts | 92° |
| 2026-05-01 12:52 | 63.06184 | -132.25362 | 38547 ft | 564 kts | 92° |
| 2026-05-01 12:52 | 63.05659 | -131.99495 | 38550 ft | 564 kts | 93° |
| 2026-05-01 12:53 | 63.05085 | -131.73573 | 38552 ft | 564 kts | 93° |
| 2026-05-01 12:54 | 63.04676 | -131.56284 | 38552 ft | 564 kts | 93° |
| 2026-05-01 12:54 | 63.04025 | -131.30411 | 38551 ft | 564 kts | 93° |
| 2026-05-01 12:55 | 63.03327 | -131.04599 | 38546 ft | 564 kts | 94° |
| 2026-05-01 12:56 | 63.02834 | -130.87337 | 38549 ft | 564 kts | 94° |
| 2026-05-01 12:56 | 63.02321 | -130.70080 | 38555 ft | 564 kts | 94° |
| 2026-05-01 12:57 | 63.01785 | -130.52824 | 38543 ft | 564 kts | 94° |
| 2026-05-01 12:57 | 63.00943 | -130.26946 | 38556 ft | 564 kts | 94° |
| 2026-05-01 12:58 | 63.00324 | -130.09829 | 38546 ft | 564 kts | 96° |
| 2026-05-01 12:59 | 62.98973 | -129.84139 | 38556 ft | 564 kts | 98° |
| 2026-05-01 12:59 | 62.97370 | -129.58464 | 38543 ft | 564 kts | 98° |
| 2026-05-01 13:00 | 62.95679 | -129.32839 | 38556 ft | 564 kts | 99° |
| 2026-05-01 13:01 | 62.93954 | -129.07379 | 38547 ft | 564 kts | 99° |
| 2026-05-01 13:02 | 62.92175 | -128.81812 | 38550 ft | 564 kts | 99° |
| 2026-05-01 13:07 | 62.77754 | -126.95637 | 38544 ft | 564 kts | 101° |
| 2026-05-01 13:08 | 62.76320 | -126.78791 | 38553 ft | 564 kts | 101° |
| 2026-05-01 13:08 | 62.74876 | -126.62068 | 38552 ft | 564 kts | 101° |
| 2026-05-01 13:09 | 62.73402 | -126.45251 | 38544 ft | 564 kts | 101° |
| 2026-05-01 13:09 | 62.71905 | -126.28427 | 38556 ft | 564 kts | 101° |
| 2026-05-01 13:10 | 62.70398 | -126.11724 | 38547 ft | 564 kts | 102° |
| 2026-05-01 13:10 | 62.68862 | -125.94934 | 38549 ft | 564 kts | 102° |
| 2026-05-01 13:11 | 62.67316 | -125.78272 | 38555 ft | 564 kts | 102° |
| 2026-05-01 13:11 | 62.65739 | -125.61512 | 38543 ft | 564 kts | 102° |
| 2026-05-01 13:12 | 62.64145 | -125.44806 | 38554 ft | 564 kts | 102° |
| 2026-05-01 13:12 | 62.62542 | -125.28222 | 38550 ft | 564 kts | 102° |
| 2026-05-01 13:13 | 62.60909 | -125.11546 | 38545 ft | 564 kts | 102° |
| 2026-05-01 13:13 | 62.59256 | -124.94895 | 38557 ft | 564 kts | 103° |
| 2026-05-01 13:14 | 62.57583 | -124.78254 | 38545 ft | 564 kts | 103° |
| 2026-05-01 13:14 | 62.55890 | -124.61638 | 38551 ft | 564 kts | 103° |
| 2026-05-01 13:15 | 62.54178 | -124.45038 | 38554 ft | 564 kts | 103° |
| 2026-05-01 13:15 | 62.52457 | -124.28567 | 38543 ft | 564 kts | 103° |
| 2026-05-01 13:16 | 62.50703 | -124.11982 | 38555 ft | 564 kts | 103° |
| 2026-05-01 13:16 | 62.48931 | -123.95426 | 38548 ft | 564 kts | 103° |
| 2026-05-01 13:17 | 62.45343 | -123.62517 | 38556 ft | 564 kts | 104° |
| 2026-05-01 13:18 | 62.42599 | -123.37869 | 38545 ft | 564 kts | 104° |
| 2026-05-01 13:18 | 62.40741 | -123.21426 | 38557 ft | 564 kts | 104° |
| 2026-05-01 13:19 | 62.38863 | -123.04992 | 38545 ft | 564 kts | 104° |
| 2026-05-01 13:20 | 62.36009 | -122.80376 | 38556 ft | 564 kts | 104° |
| 2026-05-01 13:20 | 62.34094 | -122.64097 | 38546 ft | 564 kts | 104° |
| 2026-05-01 13:21 | 62.31168 | -122.39558 | 38555 ft | 564 kts | 105° |
| 2026-05-01 13:21 | 62.29204 | -122.23312 | 38548 ft | 564 kts | 105° |
| 2026-05-01 13:22 | 62.27211 | -122.07011 | 38547 ft | 564 kts | 105° |
| 2026-05-01 13:22 | 62.25199 | -121.90731 | 38556 ft | 564 kts | 105° |
| 2026-05-01 13:23 | 62.23169 | -121.74476 | 38544 ft | 564 kts | 105° |
| 2026-05-01 13:23 | 62.21130 | -121.58324 | 38553 ft | 564 kts | 105° |
| 2026-05-01 13:24 | 62.19053 | -121.42049 | 38552 ft | 564 kts | 106° |
| 2026-05-01 13:25 | 62.15927 | -121.17867 | 38551 ft | 564 kts | 106° |
| 2026-05-01 13:25 | 62.13819 | -121.01761 | 38554 ft | 564 kts | 106° |
| 2026-05-01 13:26 | 62.11680 | -120.85597 | 38543 ft | 564 kts | 106° |
| 2026-05-01 13:26 | 62.09527 | -120.69488 | 38555 ft | 564 kts | 106° |
| 2026-05-01 13:27 | 62.07369 | -120.53502 | 38548 ft | 564 kts | 107° |
| 2026-05-01 13:27 | 62.04077 | -120.29418 | 38554 ft | 564 kts | 107° |
| 2026-05-01 13:28 | 62.00470 | -120.05556 | 38547 ft | 563 kts | 111° |
| 2026-05-01 13:29 | 61.94260 | -119.75036 | 38554 ft | 563 kts | 116° |
| 2026-05-01 13:31 | 61.83543 | -119.30756 | 38549 ft | 563 kts | 118° |
| 2026-05-01 13:32 | 61.74423 | -118.94084 | 38551 ft | 563 kts | 118° |
| 2026-05-01 13:33 | 61.65229 | -118.57693 | 38553 ft | 563 kts | 118° |
| 2026-05-01 13:34 | 61.57805 | -118.28739 | 38556 ft | 563 kts | 119° |
| 2026-05-01 13:35 | 61.52189 | -118.07084 | 38543 ft | 563 kts | 119° |
| 2026-05-01 13:36 | 61.46559 | -117.85587 | 38556 ft | 563 kts | 119° |
| 2026-05-01 13:36 | 61.40870 | -117.64068 | 38546 ft | 563 kts | 120° |
| 2026-05-01 13:37 | 61.37708 | -117.52201 | 38556 ft | 563 kts | 120° |
| 2026-05-01 13:37 | 61.33231 | -117.35498 | 38544 ft | 563 kts | 120° |
| 2026-05-01 13:38 | 61.27496 | -117.14286 | 38557 ft | 563 kts | 120° |
| 2026-05-01 13:39 | 61.23627 | -117.00085 | 38546 ft | 563 kts | 120° |
| 2026-05-01 13:39 | 61.19770 | -116.86021 | 38550 ft | 563 kts | 120° |
| 2026-05-01 13:40 | 61.15880 | -116.71920 | 38555 ft | 563 kts | 120° |
| 2026-05-01 13:40 | 61.11967 | -116.57828 | 38543 ft | 563 kts | 120° |
| 2026-05-01 13:41 | 61.08067 | -116.43867 | 38555 ft | 563 kts | 121° |
| 2026-05-01 13:41 | 61.04799 | -116.32234 | 38552 ft | 563 kts | 121° |
| 2026-05-01 13:42 | 61.00853 | -116.18266 | 38544 ft | 563 kts | 121° |
| 2026-05-01 13:42 | 60.96891 | -116.04330 | 38556 ft | 563 kts | 121° |
| 2026-05-01 13:43 | 60.92935 | -115.90498 | 38546 ft | 563 kts | 121° |
| 2026-05-01 13:43 | 60.88947 | -115.76636 | 38549 ft | 563 kts | 121° |
| 2026-05-01 13:44 | 60.84945 | -115.62811 | 38555 ft | 563 kts | 121° |
| 2026-05-01 13:44 | 60.80926 | -115.49014 | 38543 ft | 563 kts | 121° |
| 2026-05-01 13:45 | 60.76916 | -115.35327 | 38554 ft | 563 kts | 121° |
| 2026-05-01 13:45 | 60.72870 | -115.21600 | 38550 ft | 563 kts | 122° |
| 2026-05-01 13:46 | 60.68810 | -115.07911 | 38546 ft | 563 kts | 122° |
| 2026-05-01 13:46 | 60.64758 | -114.94327 | 38557 ft | 563 kts | 122° |
| 2026-05-01 13:47 | 60.60676 | -114.80721 | 38545 ft | 563 kts | 122° |
| 2026-05-01 13:47 | 60.56568 | -114.67110 | 38551 ft | 563 kts | 122° |
| 2026-05-01 13:48 | 60.52458 | -114.53575 | 38553 ft | 563 kts | 122° |
| 2026-05-01 13:48 | 60.48349 | -114.40120 | 38543 ft | 563 kts | 122° |
| 2026-05-01 13:49 | 60.44212 | -114.26654 | 38556 ft | 563 kts | 122° |
| 2026-05-01 13:49 | 60.40054 | -114.13195 | 38548 ft | 563 kts | 122° |
| 2026-05-01 13:50 | 60.35883 | -113.99774 | 38547 ft | 563 kts | 123° |
| 2026-05-01 13:50 | 60.31706 | -113.86413 | 38556 ft | 563 kts | 123° |
| 2026-05-01 13:51 | 60.27536 | -113.73149 | 38544 ft | 563 kts | 123° |
| 2026-05-01 13:51 | 60.23327 | -113.59837 | 38553 ft | 563 kts | 123° |
| 2026-05-01 13:52 | 60.19103 | -113.46554 | 38552 ft | 563 kts | 123° |
| 2026-05-01 13:52 | 60.14888 | -113.33376 | 38544 ft | 563 kts | 123° |
| 2026-05-01 13:53 | 60.10619 | -113.20104 | 38556 ft | 563 kts | 123° |
| 2026-05-01 13:53 | 60.04254 | -113.00455 | 38543 ft | 563 kts | 123° |
| 2026-05-01 13:54 | 59.99974 | -112.87334 | 38556 ft | 563 kts | 124° |
| 2026-05-01 13:54 | 59.95679 | -112.74243 | 38548 ft | 563 kts | 124° |
| 2026-05-01 13:55 | 59.91366 | -112.61168 | 38547 ft | 563 kts | 124° |
| 2026-05-01 13:55 | 59.87075 | -112.48235 | 38556 ft | 563 kts | 124° |
| 2026-05-01 13:56 | 59.82720 | -112.35178 | 38544 ft | 563 kts | 124° |
| 2026-05-01 13:56 | 59.78397 | -112.22292 | 38553 ft | 563 kts | 124° |
| 2026-05-01 13:57 | 59.74038 | -112.09370 | 38551 ft | 563 kts | 124° |
| 2026-05-01 13:57 | 59.69668 | -111.96485 | 38544 ft | 563 kts | 124° |
| 2026-05-01 13:58 | 59.65286 | -111.83635 | 38556 ft | 563 kts | 124° |
| 2026-05-01 13:58 | 59.60919 | -111.70899 | 38546 ft | 563 kts | 124° |
| 2026-05-01 13:59 | 59.56512 | -111.58116 | 38549 ft | 563 kts | 125° |
| 2026-05-01 13:59 | 59.52091 | -111.45365 | 38555 ft | 563 kts | 125° |
| 2026-05-01 14:00 | 59.47658 | -111.32644 | 38543 ft | 563 kts | 125° |
| 2026-05-01 14:00 | 59.43222 | -111.19985 | 38555 ft | 563 kts | 125° |
| 2026-05-01 14:01 | 59.38764 | -111.07332 | 38549 ft | 563 kts | 125° |
| 2026-05-01 14:01 | 59.34318 | -110.94779 | 38546 ft | 563 kts | 125° |
| 2026-05-01 14:02 | 59.29844 | -110.82217 | 38557 ft | 563 kts | 126° |
| 2026-05-01 14:02 | 59.25343 | -110.69643 | 38545 ft | 563 kts | 126° |
| 2026-05-01 14:03 | 59.20846 | -110.57149 | 38551 ft | 563 kts | 126° |
| 2026-05-01 14:03 | 59.16328 | -110.44662 | 38553 ft | 563 kts | 126° |
| 2026-05-01 14:04 | 59.11822 | -110.32274 | 38543 ft | 563 kts | 126° |
| 2026-05-01 14:04 | 59.08046 | -110.21943 | 38554 ft | 563 kts | 126° |
| 2026-05-01 14:05 | 59.02751 | -110.07435 | 38550 ft | 563 kts | 124° |
| 2026-05-01 14:05 | 58.98453 | -109.94845 | 38544 ft | 563 kts | 123° |
| 2026-05-01 14:06 | 58.94226 | -109.82061 | 38556 ft | 563 kts | 122° |
| 2026-05-01 14:06 | 58.90033 | -109.69215 | 38545 ft | 563 kts | 122° |
| 2026-05-01 14:07 | 58.85855 | -109.56434 | 38551 ft | 563 kts | 122° |
| 2026-05-01 14:08 | 58.79567 | -109.37336 | 38547 ft | 563 kts | 122° |
| 2026-05-01 14:08 | 58.75347 | -109.24612 | 38549 ft | 563 kts | 123° |
| 2026-05-01 14:09 | 58.71114 | -109.11918 | 38555 ft | 563 kts | 123° |
| 2026-05-01 14:09 | 58.66889 | -108.99317 | 38543 ft | 563 kts | 123° |
| 2026-05-01 14:10 | 58.62632 | -108.86687 | 38554 ft | 563 kts | 123° |
| 2026-05-01 14:10 | 58.58383 | -108.74148 | 38550 ft | 563 kts | 123° |
| 2026-05-01 14:11 | 58.54100 | -108.61577 | 38545 ft | 563 kts | 123° |
| 2026-05-01 14:11 | 58.47648 | -108.42762 | 38552 ft | 563 kts | 123° |
| 2026-05-01 14:12 | 58.43363 | -108.30351 | 38544 ft | 563 kts | 123° |
| 2026-05-01 14:12 | 58.39039 | -108.17890 | 38556 ft | 563 kts | 123° |
| 2026-05-01 14:13 | 58.35424 | -108.07521 | 38549 ft | 563 kts | 123° |
| 2026-05-01 14:13 | 58.30346 | -107.93034 | 38549 ft | 563 kts | 124° |
| 2026-05-01 14:14 | 58.26015 | -107.80748 | 38555 ft | 563 kts | 124° |
| 2026-05-01 14:14 | 58.21642 | -107.68405 | 38543 ft | 563 kts | 124° |
| 2026-05-01 14:15 | 58.17258 | -107.56098 | 38554 ft | 563 kts | 124° |
| 2026-05-01 14:15 | 58.12861 | -107.43816 | 38550 ft | 563 kts | 124° |
| 2026-05-01 14:16 | 58.08476 | -107.31628 | 38545 ft | 563 kts | 124° |
| 2026-05-01 14:16 | 58.04057 | -107.19411 | 38557 ft | 563 kts | 124° |
| 2026-05-01 14:17 | 57.99624 | -107.07218 | 38545 ft | 563 kts | 124° |
| 2026-05-01 14:17 | 57.95182 | -106.95063 | 38551 ft | 563 kts | 124° |
| 2026-05-01 14:18 | 57.90751 | -106.82996 | 38554 ft | 563 kts | 124° |
| 2026-05-01 14:18 | 57.87013 | -106.72867 | 38543 ft | 563 kts | 125° |
| 2026-05-01 14:19 | 57.81808 | -106.58830 | 38556 ft | 563 kts | 125° |
| 2026-05-01 14:19 | 57.77318 | -106.46789 | 38548 ft | 563 kts | 125° |
| 2026-05-01 14:20 | 57.70569 | -106.28800 | 38554 ft | 563 kts | 125° |
| 2026-05-01 14:21 | 57.66080 | -106.16912 | 38550 ft | 563 kts | 125° |
| 2026-05-01 14:21 | 57.61552 | -106.04978 | 38545 ft | 563 kts | 125° |
| 2026-05-01 14:22 | 57.54734 | -105.87122 | 38552 ft | 563 kts | 126° |
| 2026-05-01 14:22 | 57.50178 | -105.75262 | 38544 ft | 563 kts | 126° |
| 2026-05-01 14:23 | 57.45639 | -105.63507 | 38556 ft | 563 kts | 126° |
| 2026-05-01 14:23 | 57.41064 | -105.51714 | 38546 ft | 563 kts | 126° |
| 2026-05-01 14:24 | 57.36469 | -105.39927 | 38549 ft | 563 kts | 126° |
| 2026-05-01 14:24 | 57.31892 | -105.28244 | 38555 ft | 563 kts | 126° |
| 2026-05-01 14:25 | 57.27280 | -105.16530 | 38543 ft | 563 kts | 126° |
| 2026-05-01 14:25 | 57.22659 | -105.04850 | 38554 ft | 563 kts | 126° |
| 2026-05-01 14:26 | 57.15732 | -104.87444 | 38544 ft | 563 kts | 126° |
| 2026-05-01 14:27 | 57.11077 | -104.75818 | 38553 ft | 563 kts | 126° |
| 2026-05-01 14:27 | 57.06425 | -104.64256 | 38551 ft | 563 kts | 127° |
| 2026-05-01 14:28 | 56.99444 | -104.47009 | 38551 ft | 563 kts | 127° |
| 2026-05-01 14:28 | 56.94758 | -104.35500 | 38553 ft | 563 kts | 127° |
| 2026-05-01 14:29 | 56.90068 | -104.24037 | 38543 ft | 562 kts | 127° |
| 2026-05-01 14:30 | 56.80668 | -104.01222 | 38547 ft | 563 kts | 127° |
| 2026-05-01 14:31 | 56.73577 | -103.84155 | 38555 ft | 563 kts | 127° |
| 2026-05-01 14:31 | 56.69631 | -103.74709 | 38552 ft | 563 kts | 127° |
| 2026-05-01 14:32 | 56.64884 | -103.63392 | 38544 ft | 562 kts | 127° |
| 2026-05-01 14:32 | 56.60122 | -103.52095 | 38556 ft | 563 kts | 127° |
| 2026-05-01 14:33 | 56.55339 | -103.40800 | 38546 ft | 563 kts | 128° |
| 2026-05-01 14:33 | 56.50594 | -103.29647 | 38550 ft | 562 kts | 128° |
| 2026-05-01 14:34 | 56.45801 | -103.18434 | 38555 ft | 563 kts | 128° |
| 2026-05-01 14:34 | 56.40999 | -103.07250 | 38543 ft | 562 kts | 128° |
| 2026-05-01 14:35 | 56.36195 | -102.96115 | 38555 ft | 563 kts | 128° |
| 2026-05-01 14:35 | 56.31396 | -102.85041 | 38549 ft | 563 kts | 128° |
| 2026-05-01 14:36 | 56.26557 | -102.73925 | 38546 ft | 562 kts | 128° |
| 2026-05-01 14:36 | 56.21715 | -102.62854 | 38556 ft | 563 kts | 128° |
| 2026-05-01 14:37 | 56.16895 | -102.51883 | 38544 ft | 562 kts | 128° |
| 2026-05-01 14:37 | 56.12035 | -102.40870 | 38552 ft | 563 kts | 128° |
| 2026-05-01 14:38 | 56.07155 | -102.29863 | 38552 ft | 563 kts | 128° |
| 2026-05-01 14:38 | 56.02274 | -102.18905 | 38544 ft | 562 kts | 128° |
| 2026-05-01 14:39 | 55.97409 | -102.08030 | 38556 ft | 563 kts | 129° |
| 2026-05-01 14:39 | 55.92508 | -101.97123 | 38546 ft | 563 kts | 129° |
| 2026-05-01 14:40 | 55.87591 | -101.86230 | 38549 ft | 562 kts | 129° |
| 2026-05-01 14:40 | 55.82696 | -101.75435 | 38555 ft | 563 kts | 129° |
| 2026-05-01 14:41 | 55.77775 | -101.64630 | 38543 ft | 562 kts | 129° |
| 2026-05-01 14:41 | 55.72838 | -101.53839 | 38554 ft | 563 kts | 129° |
| 2026-05-01 14:42 | 55.67881 | -101.43052 | 38549 ft | 563 kts | 129° |
| 2026-05-01 14:42 | 55.62958 | -101.32385 | 38546 ft | 562 kts | 129° |
| 2026-05-01 14:43 | 55.57990 | -101.21669 | 38557 ft | 563 kts | 129° |
| 2026-05-01 14:43 | 55.53022 | -101.11000 | 38545 ft | 562 kts | 129° |
| 2026-05-01 14:44 | 55.48038 | -101.00344 | 38552 ft | 562 kts | 129° |
| 2026-05-01 14:44 | 55.40572 | -100.84468 | 38546 ft | 563 kts | 130° |
| 2026-05-01 14:45 | 55.33045 | -100.68566 | 38556 ft | 563 kts | 130° |
| 2026-05-01 14:46 | 55.28057 | -100.58083 | 38547 ft | 563 kts | 130° |
| 2026-05-01 14:46 | 55.20505 | -100.42301 | 38555 ft | 563 kts | 130° |
| 2026-05-01 14:47 | 55.15460 | -100.31815 | 38548 ft | 563 kts | 130° |
| 2026-05-01 14:48 | 55.07909 | -100.16202 | 38554 ft | 562 kts | 130° |
| 2026-05-01 14:48 | 55.00399 | -100.00464 | 38544 ft | 562 kts | 127° |
| 2026-05-01 14:49 | 54.91767 | -99.77703 | 38550 ft | 563 kts | 122° |
| 2026-05-01 14:50 | 54.83336 | -99.54837 | 38553 ft | 563 kts | 123° |
| 2026-05-01 14:51 | 54.76945 | -99.37763 | 38546 ft | 563 kts | 123° |
| 2026-05-01 14:52 | 54.70518 | -99.20719 | 38555 ft | 563 kts | 123° |
| 2026-05-01 14:53 | 54.64092 | -99.03791 | 38547 ft | 563 kts | 123° |
| 2026-05-01 14:53 | 54.59789 | -98.92517 | 38556 ft | 563 kts | 123° |
| 2026-05-01 14:54 | 54.55467 | -98.81247 | 38544 ft | 563 kts | 123° |
| 2026-05-01 14:54 | 54.51129 | -98.69987 | 38553 ft | 563 kts | 123° |
| 2026-05-01 14:55 | 54.46815 | -98.58839 | 38552 ft | 563 kts | 123° |
| 2026-05-01 14:55 | 54.42456 | -98.47625 | 38544 ft | 563 kts | 123° |
| 2026-05-01 14:56 | 54.38122 | -98.36527 | 38556 ft | 563 kts | 124° |
| 2026-05-01 14:56 | 54.33748 | -98.25376 | 38546 ft | 563 kts | 124° |
| 2026-05-01 14:57 | 54.29366 | -98.14252 | 38549 ft | 563 kts | 124° |
| 2026-05-01 14:57 | 54.22768 | -97.97597 | 38547 ft | 563 kts | 124° |
| 2026-05-01 14:58 | 54.18390 | -97.86607 | 38548 ft | 563 kts | 124° |
| 2026-05-01 14:58 | 54.13948 | -97.75507 | 38556 ft | 563 kts | 124° |
| 2026-05-01 14:59 | 54.09541 | -97.64542 | 38544 ft | 563 kts | 124° |
| 2026-05-01 14:59 | 54.05096 | -97.53532 | 38553 ft | 563 kts | 124° |
| 2026-05-01 15:00 | 53.98449 | -97.37154 | 38544 ft | 563 kts | 124° |
| 2026-05-01 15:01 | 53.93985 | -97.26216 | 38552 ft | 563 kts | 124° |
| 2026-05-01 15:01 | 53.89516 | -97.15315 | 38552 ft | 563 kts | 124° |
| 2026-05-01 15:02 | 53.85054 | -97.04475 | 38544 ft | 563 kts | 125° |
| 2026-05-01 15:02 | 53.80567 | -96.93623 | 38556 ft | 563 kts | 125° |
| 2026-05-01 15:03 | 53.76064 | -96.82779 | 38547 ft | 563 kts | 125° |
| 2026-05-01 15:03 | 53.71550 | -96.71956 | 38549 ft | 563 kts | 125° |
| 2026-05-01 15:04 | 53.67055 | -96.61226 | 38555 ft | 563 kts | 125° |
| 2026-05-01 15:04 | 53.62522 | -96.50447 | 38543 ft | 563 kts | 125° |
| 2026-05-01 15:05 | 53.57979 | -96.39693 | 38554 ft | 563 kts | 125° |
| 2026-05-01 15:05 | 53.53447 | -96.29011 | 38550 ft | 563 kts | 125° |
| 2026-05-01 15:06 | 53.48892 | -96.18321 | 38545 ft | 563 kts | 126° |
| 2026-05-01 15:06 | 53.44323 | -96.07641 | 38557 ft | 563 kts | 126° |
| 2026-05-01 15:07 | 53.39750 | -95.96999 | 38545 ft | 563 kts | 126° |
| 2026-05-01 15:07 | 53.35185 | -95.86419 | 38551 ft | 563 kts | 126° |
| 2026-05-01 15:08 | 53.30594 | -95.75824 | 38553 ft | 563 kts | 126° |
| 2026-05-01 15:08 | 53.25986 | -95.65234 | 38543 ft | 563 kts | 126° |
| 2026-05-01 15:09 | 53.21368 | -95.54664 | 38556 ft | 563 kts | 126° |
| 2026-05-01 15:09 | 53.16740 | -95.44118 | 38547 ft | 563 kts | 126° |
| 2026-05-01 15:10 | 53.12136 | -95.33668 | 38548 ft | 562 kts | 126° |
| 2026-05-01 15:10 | 53.05153 | -95.17903 | 38549 ft | 563 kts | 126° |
| 2026-05-01 15:11 | 52.98198 | -95.02295 | 38553 ft | 563 kts | 126° |
| 2026-05-01 15:12 | 52.93525 | -94.91863 | 38551 ft | 563 kts | 127° |
| 2026-05-01 15:12 | 52.86497 | -94.76254 | 38552 ft | 563 kts | 127° |
| 2026-05-01 15:14 | 52.74779 | -94.50439 | 38550 ft | 563 kts | 127° |
| 2026-05-01 15:14 | 52.67688 | -94.35002 | 38546 ft | 563 kts | 127° |
| 2026-05-01 15:15 | 52.58241 | -94.14539 | 38555 ft | 563 kts | 128° |
| 2026-05-01 15:16 | 52.48738 | -93.94084 | 38554 ft | 561 kts | 128° |
| 2026-05-01 15:18 | 52.36876 | -93.68782 | 38553 ft | 561 kts | 128° |
| 2026-05-01 15:19 | 52.27320 | -93.48576 | 38544 ft | 561 kts | 128° |
| 2026-05-01 15:19 | 52.21100 | -93.35495 | 38557 ft | 561 kts | 128° |
| 2026-05-01 15:20 | 52.13903 | -93.20454 | 38544 ft | 561 kts | 128° |
| 2026-05-01 15:21 | 52.09094 | -93.10459 | 38556 ft | 561 kts | 128° |
| 2026-05-01 15:21 | 52.04266 | -93.00463 | 38546 ft | 561 kts | 128° |
| 2026-05-01 15:22 | 51.97839 | -92.87216 | 38554 ft | 561 kts | 128° |
| 2026-05-01 15:22 | 51.92992 | -92.77271 | 38550 ft | 561 kts | 128° |
| 2026-05-01 15:23 | 51.88137 | -92.67348 | 38545 ft | 561 kts | 128° |
| 2026-05-01 15:23 | 51.83315 | -92.57530 | 38557 ft | 561 kts | 129° |
| 2026-05-01 15:24 | 51.78443 | -92.47651 | 38545 ft | 561 kts | 129° |
| 2026-05-01 15:24 | 51.73574 | -92.37813 | 38551 ft | 561 kts | 129° |
| 2026-05-01 15:25 | 51.68685 | -92.27973 | 38553 ft | 561 kts | 129° |
| 2026-05-01 15:25 | 51.63789 | -92.18158 | 38543 ft | 561 kts | 129° |
| 2026-05-01 15:26 | 51.58894 | -92.08380 | 38556 ft | 561 kts | 129° |
| 2026-05-01 15:26 | 51.54014 | -91.98671 | 38547 ft | 561 kts | 129° |
| 2026-05-01 15:27 | 51.49101 | -91.88934 | 38548 ft | 561 kts | 129° |
| 2026-05-01 15:28 | 51.41710 | -91.74352 | 38549 ft | 561 kts | 129° |
| 2026-05-01 15:28 | 51.36769 | -91.64652 | 38546 ft | 561 kts | 129° |
| 2026-05-01 15:29 | 51.29349 | -91.50151 | 38551 ft | 561 kts | 129° |
| 2026-05-01 15:30 | 51.19462 | -91.30958 | 38557 ft | 561 kts | 130° |
| 2026-05-01 15:31 | 51.04549 | -91.02273 | 38554 ft | 561 kts | 130° |
| 2026-05-01 15:32 | 50.94551 | -90.83222 | 38555 ft | 561 kts | 130° |
| 2026-05-01 15:34 | 50.79517 | -90.54835 | 38556 ft | 561 kts | 130° |